Time;durP1;ratioP1;P1;durP2;ratioP2;P2;SDS_P1;SDS_P2;PMS_P1;PMS_P2;Temp;Humidity;BMP_temperature;BMP_pressure;BME280_temperature;BME280_humidity;BME280_pressure;Samples;Min_cycle;Max_cycle;Signal;HPM_P1;HPM_P2
2021/11/29 00:00:07;;;;;;;9.07;6.82;;;;;;;-0.38;100.00;94165.94;5011877;28;24428;-72
2021/11/29 00:02:35;;;;;;;8.03;7.03;;;;;;;-0.47;100.00;94165.56;5011631;28;24432;-73
2021/11/29 00:05:01;;;;;;;7.65;6.93;;;;;;;-0.52;100.00;94170.81;5003745;28;24894;-73
2021/11/29 00:07:28;;;;;;;8.90;8.10;;;;;;;-0.46;100.00;94178.19;5011756;28;24799;-72
2021/11/29 00:09:56;;;;;;;7.93;7.10;;;;;;;-0.43;100.00;94178.06;5011477;28;24966;-73
2021/11/29 00:12:22;;;;;;;11.10;7.40;;;;;;;-0.33;100.00;94181.00;5011679;28;24421;-73
2021/11/29 00:14:49;;;;;;;8.00;7.20;;;;;;;-0.16;100.00;94177.69;5011514;28;24448;-73
2021/11/29 00:17:16;;;;;;;8.35;7.57;;;;;;;-0.26;100.00;94183.22;5011057;28;24499;-73
2021/11/29 00:19:44;;;;;;;7.53;6.82;;;;;;;-0.26;100.00;94184.91;5010718;28;24437;-73
2021/11/29 00:22:11;;;;;;;8.45;7.65;;;;;;;-0.28;100.00;94184.97;5011280;28;24439;-73
2021/11/29 00:24:37;;;;;;;8.55;7.63;;;;;;;-0.33;100.00;94189.47;5011443;28;24830;-73
2021/11/29 00:27:04;;;;;;;11.27;8.05;;;;;;;-0.32;100.00;94186.03;5010933;28;24999;-73
2021/11/29 00:29:31;;;;;;;8.60;7.80;;;;;;;-0.33;100.00;94188.66;5011116;28;24838;-73
2021/11/29 00:31:57;;;;;;;9.63;8.50;;;;;;;-0.37;100.00;94189.66;5011036;28;24428;-73
2021/11/29 00:34:25;;;;;;;9.52;8.52;;;;;;;-0.35;100.00;94188.69;5005547;28;24791;-73
2021/11/29 00:36:53;;;;;;;9.93;8.93;;;;;;;-0.36;100.00;94209.13;5010669;28;24464;-73
2021/11/29 00:39:20;;;;;;;9.60;8.50;;;;;;;-0.20;100.00;94201.63;5011021;28;24436;-73
2021/11/29 00:41:46;;;;;;;8.87;7.97;;;;;;;-0.36;100.00;94209.13;5011041;28;24435;-73
2021/11/29 00:44:13;;;;;;;8.70;7.88;;;;;;;-0.47;100.00;94207.06;5010971;28;24423;-73
2021/11/29 00:46:40;;;;;;;8.77;7.95;;;;;;;-0.37;100.00;94215.94;5010576;28;24475;-74
2021/11/29 00:49:06;;;;;;;8.48;7.78;;;;;;;-0.47;100.00;94209.63;5011052;28;24433;-73
2021/11/29 00:51:33;;;;;;;8.20;7.43;;;;;;;-0.49;100.00;94221.56;5010757;28;24828;-73
2021/11/29 00:54:00;;;;;;;8.68;7.88;;;;;;;-0.46;100.00;94226.50;4991128;28;24979;-72
2021/11/29 00:56:28;;;;;;;8.77;7.72;;;;;;;-0.26;100.00;94228.16;4990815;28;24463;-73
2021/11/29 00:58:54;;;;;;;8.77;7.97;;;;;;;-0.44;100.00;94227.28;4990719;28;24995;-73
2021/11/29 01:01:21;;;;;;;8.50;7.38;;;;;;;-0.40;100.00;94231.34;4991383;28;24432;-73
2021/11/29 01:03:48;;;;;;;9.13;8.15;;;;;;;-0.48;100.00;94230.84;4991196;28;24428;-73
2021/11/29 01:06:14;;;;;;;8.83;8.03;;;;;;;-0.54;100.00;94226.84;4991181;28;24522;-73
2021/11/29 01:08:41;;;;;;;9.40;8.60;;;;;;;-0.59;100.00;94230.50;4991141;28;24460;-74
2021/11/29 01:11:10;;;;;;;10.30;8.65;;;;;;;-0.52;100.00;94229.31;4995586;28;24439;-73
2021/11/29 01:13:38;;;;;;;9.07;8.18;;;;;;;-0.45;100.00;94230.69;5010345;28;24436;-73
2021/11/29 01:16:06;;;;;;;9.10;8.20;;;;;;;-0.50;100.00;94232.63;5010333;28;24444;-73
2021/11/29 01:18:32;;;;;;;8.00;7.22;;;;;;;-0.42;100.00;94235.66;5010693;28;24420;-73
2021/11/29 01:20:59;;;;;;;8.95;8.15;;;;;;;-0.44;100.00;94240.00;5010599;28;24428;-73
2021/11/29 01:23:26;;;;;;;9.77;8.77;;;;;;;-0.50;100.00;94238.53;5010545;28;24428;-74
2021/11/29 01:25:54;;;;;;;8.70;7.93;;;;;;;-0.59;100.00;94245.75;5010125;28;24515;-73
2021/11/29 01:28:23;;;;;;;8.55;7.75;;;;;;;-0.66;100.00;94263.00;5010280;28;24993;-73
2021/11/29 01:30:50;;;;;;;10.48;8.35;;;;;;;-0.69;100.00;94260.59;5010654;28;24424;-73
2021/11/29 01:33:17;;;;;;;9.20;8.32;;;;;;;-0.59;100.00;94263.56;5010415;28;24993;-73
2021/11/29 01:35:43;;;;;;;10.23;9.30;;;;;;;-0.69;100.00;94265.66;5010139;28;24416;-73
2021/11/29 01:38:10;;;;;;;11.38;9.95;;;;;;;-0.61;100.00;94262.78;5010374;28;24803;-74
2021/11/29 01:40:37;;;;;;;11.13;10.07;;;;;;;-0.66;100.00;94264.72;5010309;28;24467;-73
2021/11/29 01:43:06;;;;;;;12.02;8.93;;;;;;;-0.63;100.00;94265.41;5010477;28;24428;-73
2021/11/29 01:45:37;;;;;;;10.23;9.15;;;;;;;-0.64;100.00;94268.00;5010133;28;24428;-74
2021/11/29 01:48:05;;;;;;;9.85;8.95;;;;;;;-0.55;100.00;94275.25;5010188;28;24436;-73
2021/11/29 01:50:32;;;;;;;8.68;7.88;;;;;;;-0.66;100.00;94275.72;5010207;28;24440;-73
2021/11/29 01:52:58;;;;;;;8.75;7.82;;;;;;;-0.59;100.00;94284.72;5010453;28;24432;-73
2021/11/29 01:55:25;;;;;;;8.45;7.20;;;;;;;-0.66;100.00;94288.44;5009840;28;24424;-73
2021/11/29 01:57:51;;;;;;;8.40;7.60;;;;;;;-0.66;100.00;94290.97;5010249;28;24452;-73
2021/11/29 02:00:21;;;;;;;8.63;7.80;;;;;;;-0.59;100.00;94284.72;5010400;28;24420;-73
2021/11/29 02:02:51;;;;;;;8.35;7.53;;;;;;;-0.63;100.00;94290.84;5010207;28;24423;-73
2021/11/29 02:05:19;;;;;;;8.93;7.88;;;;;;;-0.60;100.00;94284.78;5009889;28;24985;-73
2021/11/29 02:07:46;;;;;;;9.27;8.38;;;;;;;-0.66;100.00;94297.78;5009875;28;24783;-73
2021/11/29 02:10:14;;;;;;;11.20;8.38;;;;;;;-0.57;100.00;94292.28;5010407;28;24466;-74
2021/11/29 02:12:41;;;;;;;11.60;9.02;;;;;;;-0.66;100.00;94298.59;5013244;28;24440;-73
2021/11/29 02:15:10;;;;;;;11.85;8.60;;;;;;;-0.64;100.00;94294.25;5013528;28;24480;-73
2021/11/29 02:17:37;;;;;;;9.77;8.70;;;;;;;-0.70;100.00;94293.69;5013440;28;24479;-73
2021/11/29 02:20:07;;;;;;;11.55;8.88;;;;;;;-0.75;100.00;94292.16;5013589;28;24486;-73
2021/11/29 02:22:35;;;;;;;9.82;8.82;;;;;;;-0.70;100.00;94297.06;5013513;28;24429;-73
2021/11/29 02:25:02;;;;;;;8.30;7.60;;;;;;;-0.71;100.00;94308.13;5013416;28;24503;-73
2021/11/29 02:27:28;;;;;;;8.32;7.43;;;;;;;-0.77;100.00;94305.84;5013534;28;24420;-73
2021/11/29 02:29:57;;;;;;;8.45;7.63;;;;;;;-0.72;100.00;94306.47;5013474;28;24424;-73
2021/11/29 02:32:24;;;;;;;9.65;8.68;;;;;;;-0.76;100.00;94308.31;5013340;28;24420;-73
2021/11/29 02:34:50;;;;;;;9.38;8.18;;;;;;;-0.71;100.00;94295.41;5013583;28;24475;-73
2021/11/29 02:37:17;;;;;;;8.85;8.05;;;;;;;-0.59;100.00;94304.25;5012924;28;25014;-74
2021/11/29 02:39:45;;;;;;;15.60;8.48;;;;;;;-0.75;100.00;94307.41;5013389;28;24436;-73
2021/11/29 02:42:14;;;;;;;9.17;7.93;;;;;;;-0.90;100.00;94309.78;5013346;28;24424;-73
2021/11/29 02:44:41;;;;;;;8.68;7.70;;;;;;;-0.99;100.00;94319.44;5013024;28;24428;-73
2021/11/29 02:47:08;;;;;;;11.03;7.67;;;;;;;-1.05;100.00;94321.41;5012807;28;24452;-74
2021/11/29 02:49:35;;;;;;;11.50;8.07;;;;;;;-1.09;100.00;94322.44;5013025;28;25602;-73
2021/11/29 02:52:04;;;;;;;8.60;7.80;;;;;;;-1.11;100.00;94324.19;5013238;28;24429;-73
2021/11/29 02:54:32;;;;;;;8.85;7.95;;;;;;;-1.01;100.00;94333.09;5013063;28;24479;-73
2021/11/29 02:57:03;;;;;;;9.00;8.00;;;;;;;-1.00;100.00;94337.31;5012571;28;24551;-72
2021/11/29 02:59:32;;;;;;;8.85;7.93;;;;;;;-1.01;100.00;94335.63;5012990;28;24478;-73
2021/11/29 03:02:00;;;;;;;9.30;8.30;;;;;;;-0.93;100.00;94341.22;5012673;28;24643;-73
2021/11/29 03:04:30;;;;;;;14.98;8.93;;;;;;;-0.95;100.00;94344.75;5013139;28;24424;-73
2021/11/29 03:06:57;;;;;;;9.43;8.52;;;;;;;-0.98;100.00;94345.69;5012504;28;24428;-74
2021/11/29 03:09:25;;;;;;;9.60;8.68;;;;;;;-0.95;100.00;94352.38;5012773;28;24424;-73
2021/11/29 03:11:52;;;;;;;10.30;9.30;;;;;;;-0.99;100.00;94347.41;5012684;28;24440;-73
2021/11/29 03:14:21;;;;;;;9.93;8.93;;;;;;;-0.91;100.00;94354.72;5012492;28;24430;-73
2021/11/29 03:16:48;;;;;;;11.05;9.95;;;;;;;-0.87;100.00;94358.78;5012318;28;24544;-73
2021/11/29 03:19:15;;;;;;;10.95;9.52;;;;;;;-0.93;100.00;94361.56;5012498;28;24939;-73
2021/11/29 03:21:42;;;;;;;10.50;9.45;;;;;;;-0.84;100.00;94365.47;5012304;28;24432;-73
2021/11/29 03:24:10;;;;;;;10.77;9.68;;;;;;;-0.88;100.00;94363.94;5012584;28;24425;-74
2021/11/29 03:26:38;;;;;;;11.18;10.05;;;;;;;-0.82;100.00;94366.22;5012111;28;24423;-73
2021/11/29 03:29:07;;;;;;;12.65;10.43;;;;;;;-0.88;100.00;94382.56;5012238;28;24435;-73
2021/11/29 03:31:36;;;;;;;10.75;9.65;;;;;;;-0.83;100.00;94378.09;5012468;28;24831;-73
2021/11/29 03:34:04;;;;;;;10.80;9.70;;;;;;;-0.90;100.00;94376.69;5012405;28;24412;-73
2021/11/29 03:36:34;;;;;;;12.55;11.25;;;;;;;-0.90;100.00;94374.16;5011845;28;24416;-73
2021/11/29 03:39:05;;;;;;;11.33;9.83;;;;;;;-0.89;100.00;94373.28;5012489;28;24447;-73
2021/11/29 03:41:32;;;;;;;12.48;9.70;;;;;;;-0.83;100.00;94377.28;5012188;28;24427;-73
2021/11/29 03:43:58;;;;;;;11.88;10.30;;;;;;;-0.75;100.00;94386.22;5012291;28;24437;-73
2021/11/29 03:46:25;;;;;;;11.90;10.70;;;;;;;-0.74;100.00;94384.53;5011869;28;24420;-73
2021/11/29 03:48:53;;;;;;;14.25;10.35;;;;;;;-0.73;100.00;94384.47;5012178;28;24413;-73
2021/11/29 03:51:19;;;;;;;11.20;10.10;;;;;;;-0.71;100.00;94386.94;5012093;28;24435;-73
2021/11/29 03:53:46;;;;;;;12.63;11.07;;;;;;;-0.72;100.00;94385.28;5011927;28;24830;-74
2021/11/29 03:56:12;;;;;;;13.45;11.88;;;;;;;-0.80;100.00;94389.84;5011341;28;24560;-72
2021/11/29 03:58:39;;;;;;;12.10;10.90;;;;;;;-0.75;100.00;94398.94;5012031;28;24448;-73
2021/11/29 04:01:05;;;;;;;14.70;11.43;;;;;;;-0.66;100.00;94391.84;5011982;28;24474;-73
2021/11/29 04:03:34;;;;;;;13.60;11.45;;;;;;;-0.69;100.00;94397.06;5011813;28;24790;-73
2021/11/29 04:06:02;;;;;;;13.55;12.15;;;;;;;-0.75;100.00;94401.47;5011445;28;24475;-72
2021/11/29 04:08:29;;;;;;;12.95;11.60;;;;;;;-0.81;100.00;94401.75;5011562;28;24418;-73
2021/11/29 04:10:55;;;;;;;14.88;12.57;;;;;;;-0.77;100.00;94405.00;5011891;28;24427;-73
2021/11/29 04:13:22;;;;;;;14.93;13.27;;;;;;;-0.75;100.00;94416.72;5011740;28;24420;-73
2021/11/29 04:15:48;;;;;;;13.05;11.75;;;;;;;-0.79;100.00;94416.94;5011571;28;24428;-73
2021/11/29 04:18:15;;;;;;;13.73;12.33;;;;;;;-0.78;100.00;94419.44;5011465;28;24456;-73
2021/11/29 04:20:41;;;;;;;13.27;11.98;;;;;;;-0.80;100.00;94428.81;5011385;28;24428;-73
2021/11/29 04:23:09;;;;;;;14.52;12.35;;;;;;;-0.69;100.00;94422.47;5011365;28;24423;-73
2021/11/29 04:25:42;;;;;;;15.82;13.18;;;;;;;-0.55;100.00;94425.28;5037670;23;24498;-72
2021/11/29 04:28:08;;;;;;;14.80;13.13;;;;;;;-0.49;100.00;94427.56;5031752;28;24944;-71
2021/11/29 04:30:35;;;;;;;17.15;13.18;;;;;;;-0.65;100.00;94431.63;5031265;28;24423;-69
2021/11/29 04:33:01;;;;;;;16.48;11.10;;;;;;;-0.67;100.00;94438.47;5030940;28;24432;-71
2021/11/29 04:35:28;;;;;;;14.43;12.82;;;;;;;-0.78;100.00;94442.31;5029899;28;24426;-69
2021/11/29 04:37:54;;;;;;;14.43;12.93;;;;;;;-0.85;100.00;94440.88;5030785;28;24439;-68
2021/11/29 04:40:22;;;;;;;13.70;12.25;;;;;;;-0.88;100.00;94442.72;5030109;28;24431;-72
2021/11/29 04:42:49;;;;;;;15.73;12.73;;;;;;;-0.87;100.00;94447.72;5026832;28;24494;-70
2021/11/29 04:45:16;;;;;;;15.05;12.93;;;;;;;-0.82;100.00;94447.53;5030322;28;24431;-70
2021/11/29 04:47:43;;;;;;;13.93;10.82;;;;;;;-0.81;100.00;94447.50;5030706;28;24422;-70
2021/11/29 04:50:10;;;;;;;13.23;11.65;;;;;;;-0.76;100.00;94449.84;5030510;28;24503;-70
2021/11/29 04:52:37;;;;;;;15.45;11.15;;;;;;;-0.80;100.00;94461.84;5030797;28;24419;-70
2021/11/29 04:55:05;;;;;;;13.60;10.15;;;;;;;-0.83;100.00;94459.44;5030320;28;24448;-70
2021/11/29 04:57:32;;;;;;;12.35;9.80;;;;;;;-0.89;100.00;94462.25;5030637;28;24451;-69
2021/11/29 04:59:59;;;;;;;12.27;10.98;;;;;;;-0.85;100.00;94466.31;5025268;28;24778;-69
2021/11/29 05:02:25;;;;;;;10.57;9.38;;;;;;;-0.95;100.00;94469.25;5025049;28;24439;-69
2021/11/29 05:04:52;;;;;;;10.35;9.35;;;;;;;-0.96;100.00;94478.59;5028326;28;24436;-69
2021/11/29 05:07:19;;;;;;;13.07;9.50;;;;;;;-0.94;100.00;94481.06;5028114;28;24435;-69
2021/11/29 05:09:46;;;;;;;10.18;8.32;;;;;;;-0.99;100.00;94477.00;5029178;28;24428;-70
2021/11/29 05:12:15;;;;;;;9.55;8.55;;;;;;;-0.90;100.00;94482.59;5030253;28;24435;-70
2021/11/29 05:14:43;;;;;;;9.50;8.60;;;;;;;-0.96;100.00;94491.31;5029984;28;24438;-70
2021/11/29 05:17:10;;;;;;;8.85;7.97;;;;;;;-0.93;100.00;94493.72;5029797;28;24496;-70
2021/11/29 05:19:37;;;;;;;9.20;8.00;;;;;;;-0.99;100.00;94496.50;5030093;28;24435;-70
2021/11/29 05:22:04;;;;;;;8.57;7.67;;;;;;;-1.04;100.00;94490.75;5030310;28;24428;-70
2021/11/29 05:24:30;;;;;;;9.82;8.75;;;;;;;-1.02;100.00;94499.16;5030093;28;24424;-70
2021/11/29 05:26:57;;;;;;;8.40;7.50;;;;;;;-0.95;100.00;94500.59;5029942;28;24416;-70
2021/11/29 05:29:23;;;;;;;9.88;8.25;;;;;;;-1.01;100.00;94505.91;5030096;28;24434;-69
2021/11/29 05:31:51;;;;;;;8.18;7.45;;;;;;;-1.04;100.00;94516.16;5030088;28;24423;-69
2021/11/29 05:34:18;;;;;;;12.03;7.67;;;;;;;-1.07;100.00;94521.38;5030258;28;24424;-69
2021/11/29 05:36:45;;;;;;;9.38;7.97;;;;;;;-1.04;100.00;94524.66;5030016;28;24427;-69
2021/11/29 05:39:14;;;;;;;9.20;6.87;;;;;;;-1.02;100.00;94527.13;5030171;28;24439;-69
2021/11/29 05:41:40;;;;;;;8.07;7.22;;;;;;;-1.03;100.00;94522.94;5030034;28;24478;-69
2021/11/29 05:44:07;;;;;;;8.02;7.13;;;;;;;-1.02;100.00;94535.56;5029819;28;24427;-69
2021/11/29 05:46:33;;;;;;;13.55;7.13;;;;;;;-1.07;100.00;94540.00;5032690;28;24566;-70
2021/11/29 05:49:01;;;;;;;7.72;6.88;;;;;;;-1.03;100.00;94540.72;5034158;28;24434;-69
2021/11/29 05:51:29;;;;;;;8.02;7.18;;;;;;;-1.04;100.00;94544.97;5034190;28;24859;-69
2021/11/29 05:53:56;;;;;;;10.73;7.82;;;;;;;-1.03;100.00;94563.59;5034071;28;24843;-69
2021/11/29 05:56:23;;;;;;;8.07;7.25;;;;;;;-1.03;100.00;94555.97;5033487;28;24426;-70
2021/11/29 05:58:51;;;;;;;9.45;7.97;;;;;;;-1.09;100.00;94559.53;5033614;28;24450;-69
2021/11/29 06:01:17;;;;;;;8.25;6.95;;;;;;;-0.95;100.00;94558.22;5033620;28;24431;-69
2021/11/29 06:03:44;;;;;;;10.35;7.55;;;;;;;-0.98;100.00;94576.94;5033873;28;24431;-68
2021/11/29 06:06:12;;;;;;;11.23;7.65;;;;;;;-1.05;100.00;94571.25;5033199;28;24948;-68
2021/11/29 06:08:40;;;;;;;8.32;6.88;;;;;;;-0.96;100.00;94570.09;5033896;28;24419;-68
2021/11/29 06:11:06;;;;;;;8.02;7.18;;;;;;;-1.04;100.00;94578.00;5033572;28;24415;-69
2021/11/29 06:13:33;;;;;;;8.25;6.15;;;;;;;-1.08;100.00;94575.63;5033306;28;24964;-68
2021/11/29 06:15:59;;;;;;;8.57;6.50;;;;;;;-1.05;100.00;94590.75;5033317;28;24426;-68
2021/11/29 06:18:26;;;;;;;9.18;6.95;;;;;;;-1.12;100.00;94585.06;5033287;28;24994;-68
2021/11/29 06:20:52;;;;;;;9.50;7.32;;;;;;;-1.09;100.00;94600.19;5033379;28;24866;-70
2021/11/29 06:23:20;;;;;;;7.88;7.10;;;;;;;-1.14;100.00;94597.00;5033342;28;24423;-68
2021/11/29 06:25:47;;;;;;;15.37;6.70;;;;;;;-1.15;100.00;94605.53;5032835;28;24436;-69
2021/11/29 06:28:13;;;;;;;8.73;6.85;;;;;;;-1.12;100.00;94605.38;5033060;28;24423;-68
2021/11/29 06:30:40;;;;;;;7.85;7.00;;;;;;;-1.03;100.00;94612.69;5033401;28;24464;-69
2021/11/29 06:33:06;;;;;;;7.70;6.90;;;;;;;-1.11;100.00;94612.16;5033234;28;24416;-69
2021/11/29 06:35:33;;;;;;;8.25;6.85;;;;;;;-1.06;100.00;94617.06;5032731;28;24983;-71
2021/11/29 06:38:01;;;;;;;7.67;6.27;;;;;;;-1.03;100.00;94624.56;5022856;28;25012;-69
2021/11/29 06:40:29;;;;;;;10.07;7.00;;;;;;;-1.07;100.00;94626.41;5028619;28;25018;-70
2021/11/29 06:42:56;;;;;;;11.88;6.93;;;;;;;-1.07;100.00;94628.09;5032792;28;24976;-70
2021/11/29 06:45:23;;;;;;;10.13;7.10;;;;;;;-1.09;100.00;94629.88;5032413;28;24436;-70
2021/11/29 06:47:50;;;;;;;9.07;6.73;;;;;;;-1.09;100.00;94638.31;5033016;28;24431;-70
2021/11/29 06:50:18;;;;;;;10.53;7.00;;;;;;;-1.14;100.00;94641.91;5027073;28;24597;-70
2021/11/29 06:52:45;;;;;;;11.10;6.88;;;;;;;-1.17;100.00;94636.94;5031740;28;24439;-70
2021/11/29 06:55:14;;;;;;;8.38;6.75;;;;;;;-1.16;100.00;94653.81;5026038;28;24443;-69
2021/11/29 06:57:42;;;;;;;12.18;6.70;;;;;;;-1.14;100.00;94660.53;5029400;28;24822;-71
2021/11/29 07:00:11;;;;;;;8.45;6.60;;;;;;;-1.15;100.00;94660.56;5032538;28;25046;-72
2021/11/29 07:02:39;;;;;;;7.88;6.30;;;;;;;-1.21;100.00;94661.63;5032686;28;24526;-72
2021/11/29 07:05:07;;;;;;;9.25;6.60;;;;;;;-1.29;100.00;94666.97;5032042;28;25027;-72
2021/11/29 07:07:34;;;;;;;10.18;6.43;;;;;;;-1.33;100.00;94667.97;5032387;28;24434;-72
2021/11/29 07:10:00;;;;;;;16.83;6.53;;;;;;;-1.36;100.00;94678.22;5032303;28;24408;-72
2021/11/29 07:12:27;;;;;;;7.88;6.28;;;;;;;-1.35;100.00;94677.31;5032378;28;24981;-70
2021/11/29 07:14:55;;;;;;;10.33;6.40;;;;;;;-1.35;100.00;94692.56;5032346;28;24646;-71
2021/11/29 07:17:21;;;;;;;11.55;6.72;;;;;;;-1.34;100.00;94696.75;5032486;28;24486;-70
2021/11/29 07:19:52;;;;;;;9.00;7.35;;;;;;;-1.38;100.00;94699.47;5032283;28;24448;-73
2021/11/29 07:22:20;;;;;;;7.85;6.07;;;;;;;-1.36;100.00;94706.16;5032162;28;24477;-71
2021/11/29 07:24:46;;;;;;;8.55;6.30;;;;;;;-1.33;100.00;94708.59;5032066;28;24435;-73
2021/11/29 07:27:13;;;;;;;7.97;5.87;;;;;;;-1.31;100.00;94711.91;5031902;28;24945;-73
2021/11/29 07:29:39;;;;;;;9.68;6.32;;;;;;;-1.25;100.00;94728.66;5032152;28;24782;-73
2021/11/29 07:32:08;;;;;;;9.63;5.72;;;;;;;-1.18;100.00;94719.13;5031965;28;24422;-74
2021/11/29 07:34:34;;;;;;;8.88;5.72;;;;;;;-1.13;100.00;94735.03;5032385;28;24426;-73
2021/11/29 07:37:01;;;;;;;14.43;5.93;;;;;;;-1.10;100.00;94733.22;5031600;28;24783;-72
2021/11/29 07:39:28;;;;;;;8.30;6.05;;;;;;;-1.07;100.00;94734.84;5031962;28;24450;-72
2021/11/29 07:41:56;;;;;;;11.68;6.78;;;;;;;-1.03;100.00;94742.28;5031691;28;24968;-73
2021/11/29 07:44:22;;;;;;;8.32;6.70;;;;;;;-1.02;100.00;94751.56;5031649;28;24440;-70
2021/11/29 07:46:49;;;;;;;8.80;5.72;;;;;;;-0.98;100.00;94748.03;5031391;28;24432;-68
2021/11/29 07:49:17;;;;;;;7.55;5.35;;;;;;;-1.07;100.00;94747.53;5031574;28;24416;-71
2021/11/29 07:51:43;;;;;;;9.23;5.45;;;;;;;-1.02;100.00;94759.19;5027977;28;24447;-71
2021/11/29 07:54:10;;;;;;;8.75;5.80;;;;;;;-0.97;100.00;94759.84;5031214;28;24431;-71
2021/11/29 07:56:36;;;;;;;8.05;5.32;;;;;;;-0.97;100.00;94757.31;5031457;28;24785;-71
2021/11/29 07:59:03;;;;;;;6.70;5.15;;;;;;;-0.85;100.00;94761.16;5031644;28;24446;-73
2021/11/29 08:01:29;;;;;;;9.43;5.25;;;;;;;-0.68;100.00;94768.19;5030755;28;24431;-72
2021/11/29 08:03:56;;;;;;;7.85;5.28;;;;;;;-0.69;100.00;94771.63;5028705;28;24478;-71
2021/11/29 08:06:23;;;;;;;6.88;4.50;;;;;;;-0.74;100.00;94779.44;5031032;28;24440;-70
2021/11/29 08:08:50;;;;;;;4.80;4.30;;;;;;;-0.56;100.00;94783.00;5030451;28;24412;-71
2021/11/29 08:11:16;;;;;;;5.70;4.40;;;;;;;-0.39;100.00;94784.97;5031200;28;24499;-71
2021/11/29 08:13:43;;;;;;;9.82;4.10;;;;;;;-0.31;100.00;94788.06;5031136;28;24949;-72
2021/11/29 08:16:10;;;;;;;4.20;3.58;;;;;;;-0.36;100.00;94789.94;5031116;28;24523;-71
2021/11/29 08:18:36;;;;;;;5.70;4.30;;;;;;;-0.33;100.00;94794.09;5030608;28;24451;-71
2021/11/29 08:21:03;;;;;;;4.25;3.80;;;;;;;-0.42;100.00;94800.34;5031066;28;24421;-72
2021/11/29 08:23:30;;;;;;;6.43;4.40;;;;;;;-0.37;100.00;94811.19;5030804;28;24960;-72
2021/11/29 08:25:57;;;;;;;5.45;3.72;;;;;;;-0.41;100.00;94808.78;5030562;28;24482;-72
2021/11/29 08:28:24;;;;;;;4.80;3.33;;;;;;;-0.55;100.00;94814.38;5031185;28;24431;-72
2021/11/29 08:30:50;;;;;;;5.18;3.13;;;;;;;-0.80;100.00;94817.75;5031237;28;24507;-71
2021/11/29 08:33:17;;;;;;;6.35;3.33;;;;;;;-0.70;100.00;94817.44;5030790;28;24427;-71
2021/11/29 08:35:46;;;;;;;4.88;3.40;;;;;;;-0.76;100.00;94815.94;5030772;28;24420;-71
2021/11/29 08:38:12;;;;;;;5.32;3.10;;;;;;;-0.76;100.00;94824.41;5031005;28;24451;-71
2021/11/29 08:40:41;;;;;;;5.53;3.25;;;;;;;-0.63;100.00;94816.34;5031294;28;24412;-71
2021/11/29 08:43:09;;;;;;;8.60;4.25;;;;;;;-0.32;100.00;94823.75;5030898;28;24423;-71
2021/11/29 08:45:37;;;;;;;6.45;3.97;;;;;;;-0.42;100.00;94828.31;5030145;28;24432;-72
2021/11/29 08:48:06;;;;;;;7.93;4.73;;;;;;;-0.32;100.00;94834.75;5031064;28;24595;-71
2021/11/29 08:50:33;;;;;;;6.18;4.30;;;;;;;-0.21;100.00;94836.09;5030925;28;24459;-71
2021/11/29 08:53:01;;;;;;;5.75;3.90;;;;;;;-0.21;100.00;94838.63;5031076;28;24416;-71
2021/11/29 08:55:28;;;;;;;8.23;4.88;;;;;;;-0.20;100.00;94835.19;5030557;28;24969;-71
2021/11/29 08:57:56;;;;;;;9.77;4.85;;;;;;;0.05;100.00;94845.31;5030567;28;24423;-72
2021/11/29 09:00:23;;;;;;;6.90;4.30;;;;;;;0.26;100.00;94851.31;5030495;28;24450;-71
2021/11/29 09:02:50;;;;;;;7.47;4.30;;;;;;;0.34;100.00;94850.16;5030780;28;24419;-70
2021/11/29 09:05:18;;;;;;;10.53;4.23;;;;;;;0.69;100.00;94856.44;5030221;28;24442;-72
2021/11/29 09:07:44;;;;;;;7.63;4.28;;;;;;;0.56;100.00;94849.34;5030488;28;24416;-70
2021/11/29 09:10:11;;;;;;;7.30;4.10;;;;;;;0.68;100.00;94862.44;5030542;28;24478;-70
2021/11/29 09:12:39;;;;;;;6.00;4.05;;;;;;;1.00;100.00;94860.31;5030353;28;24419;-70
2021/11/29 09:15:10;;;;;;;8.32;4.60;;;;;;;0.92;100.00;94870.00;5030236;28;24427;-71
2021/11/29 09:17:37;;;;;;;7.45;4.05;;;;;;;1.06;100.00;94872.84;5030336;28;24809;-70
2021/11/29 09:20:04;;;;;;;8.23;4.30;;;;;;;0.83;100.00;94870.38;5031767;28;24551;-71
2021/11/29 09:22:30;;;;;;;4.78;3.40;;;;;;;0.89;100.00;94870.97;5037295;28;24422;-71
2021/11/29 09:24:59;;;;;;;8.55;3.45;;;;;;;0.94;100.00;94886.09;5036584;28;24427;-69
2021/11/29 09:27:26;;;;;;;6.00;3.67;;;;;;;0.82;100.00;94871.28;5036789;28;24952;-69
2021/11/29 09:29:53;;;;;;;6.95;4.18;;;;;;;0.86;100.00;94875.38;5037131;28;24420;-71
2021/11/29 09:32:20;;;;;;;7.17;4.63;;;;;;;0.76;100.00;94876.59;5036968;28;24420;-70
2021/11/29 09:34:48;;;;;;;7.43;3.88;;;;;;;0.68;100.00;94893.03;5036774;28;24423;-70
2021/11/29 09:37:15;;;;;;;10.07;4.18;;;;;;;0.54;100.00;94882.53;5036615;28;24775;-70
2021/11/29 09:39:42;;;;;;;7.50;3.95;;;;;;;0.48;100.00;94892.94;5036762;28;24470;-71
2021/11/29 09:42:08;;;;;;;11.70;3.60;;;;;;;0.29;100.00;94895.34;5036944;28;24423;-69
2021/11/29 09:44:35;;;;;;;5.47;3.42;;;;;;;0.13;100.00;94886.59;5036607;28;24979;-70
2021/11/29 09:47:01;;;;;;;6.53;3.63;;;;;;;-0.12;100.00;94887.47;5036562;28;24419;-70
2021/11/29 09:49:29;;;;;;;9.35;3.60;;;;;;;0.04;100.00;94886.91;5036748;28;24415;-70
2021/11/29 09:51:57;;;;;;;9.45;4.80;;;;;;;0.07;100.00;94897.00;5036587;28;25024;-70
2021/11/29 09:54:24;;;;;;;5.45;3.28;;;;;;;0.20;100.00;94899.06;5036491;28;24427;-71
2021/11/29 09:56:53;;;;;;;19.15;4.28;;;;;;;0.21;100.00;94910.91;5036448;28;24872;-68
2021/11/29 09:59:23;;;;;;;7.90;3.08;;;;;;;0.20;100.00;94913.50;5036583;28;24443;-71
2021/11/29 10:01:49;;;;;;;9.23;3.70;;;;;;;0.15;100.00;94915.38;5036721;28;24422;-69
2021/11/29 10:04:16;;;;;;;5.07;2.90;;;;;;;0.26;100.00;94908.22;5036587;28;24420;-72
2021/11/29 10:06:45;;;;;;;5.88;2.70;;;;;;;0.26;100.00;94915.84;5036218;28;24501;-71
2021/11/29 10:09:28;;;;;;;12.70;4.40;;;;;;;0.32;100.00;94917.31;5035092;28;24531;-69
2021/11/29 10:11:54;;;;;;;8.45;5.03;;;;;;;0.20;100.00;94914.34;5036361;28;24435;-70
2021/11/29 10:14:23;;;;;;;8.43;4.32;;;;;;;0.14;100.00;94917.09;5036371;28;24438;-70
2021/11/29 10:16:59;;;;;;;5.95;3.55;;;;;;;0.01;100.00;94910.78;5036383;28;24526;-71
2021/11/29 10:19:34;;;;;;;5.95;3.33;;;;;;;0.23;100.00;94914.22;5036456;28;24439;-71
2021/11/29 10:22:18;;;;;;;8.15;3.40;;;;;;;0.13;100.00;94918.00;5036390;28;24435;-71
2021/11/29 10:24:47;;;;;;;8.77;3.15;;;;;;;-0.14;100.00;94909.63;5046208;23;24428;-70
2021/11/29 10:27:14;;;;;;;10.70;3.60;;;;;;;-0.11;100.00;94916.28;5029544;28;24442;-72
2021/11/29 10:29:50;;;;;;;6.32;3.55;;;;;;;-0.15;100.00;94909.66;5028016;28;25007;-72
2021/11/29 10:32:29;;;;;;;5.40;3.30;;;;;;;-0.28;100.00;94920.25;5033909;28;24435;-72
2021/11/29 10:34:56;;;;;;;6.47;3.22;;;;;;;-0.29;100.00;94926.25;5033182;28;24442;-72
2021/11/29 10:37:30;;;;;;;7.55;3.75;;;;;;;-0.29;100.00;94927.97;5033339;28;24439;-72
2021/11/29 10:39:56;;;;;;;5.35;3.13;;;;;;;-0.39;100.00;94926.59;5033214;28;24992;-72
2021/11/29 10:42:26;;;;;;;8.10;3.95;;;;;;;-0.39;100.00;94935.06;5033152;28;24439;-72
2021/11/29 10:44:54;;;;;;;8.63;3.80;;;;;;;-0.43;100.00;94933.50;5033040;28;24438;-72
2021/11/29 10:47:22;;;;;;;7.80;3.80;;;;;;;-0.43;100.00;94932.69;5031235;28;24458;-72
2021/11/29 10:49:50;;;;;;;5.95;3.10;;;;;;;-0.39;100.00;94931.69;5032992;28;24427;-72
2021/11/29 10:52:18;;;;;;;7.30;3.60;;;;;;;-0.37;100.00;94935.00;5033131;28;24436;-72
2021/11/29 10:54:46;;;;;;;7.50;4.18;;;;;;;-0.34;100.00;94937.44;5032964;28;24435;-72
2021/11/29 10:57:14;;;;;;;9.63;3.28;;;;;;;-0.38;100.00;94951.16;5027764;28;24429;-72
2021/11/29 10:59:44;;;;;;;6.32;3.30;;;;;;;-0.43;100.00;94946.22;5026897;28;24845;-72
2021/11/29 11:02:12;;;;;;;7.82;3.45;;;;;;;-0.42;100.00;94947.88;5032813;28;24435;-72
2021/11/29 11:04:41;;;;;;;9.48;3.88;;;;;;;-0.43;100.00;94951.31;5032626;28;24428;-72
2021/11/29 11:07:11;;;;;;;6.50;3.47;;;;;;;-0.41;100.00;94944.44;5032738;28;24489;-73
2021/11/29 11:09:41;;;;;;;7.85;3.00;;;;;;;-0.46;100.00;94955.66;5033618;28;24466;-76
2021/11/29 11:12:13;;;;;;;11.38;3.33;;;;;;;-0.44;100.00;94953.91;5032825;28;24427;-73
2021/11/29 11:14:42;;;;;;;7.10;4.65;;;;;;;-0.36;100.00;94965.50;5032956;28;24416;-73
2021/11/29 11:17:10;;;;;;;8.90;3.72;;;;;;;-0.22;100.00;94965.03;5030999;28;25087;-74
2021/11/29 11:19:40;;;;;;;6.38;3.13;;;;;;;-0.32;100.00;94958.59;5032824;28;24459;-73
2021/11/29 11:22:18;;;;;;;3.60;2.73;;;;;;;-0.37;100.00;94957.91;5033376;28;24431;-74